Time;durP1;ratioP1;P1;durP2;ratioP2;P2;SDS_P1;SDS_P2;PMS_P1;PMS_P2;Temp;Humidity;BMP_temperature;BMP_pressure;BME280_temperature;BME280_humidity;BME280_pressure;Samples;Min_cycle;Max_cycle;Signal;HPM_P1;HPM_P2
2023/01/01 00:00:00;;;;;;;54.10;43.30;;;;;;;14.53;97.29;100342.66;685849;28;1474;-66
2023/01/01 00:00:21;;;;;;;52.50;43.65;;;;;;;14.55;95.25;100348.72;686938;28;1190;-65
2023/01/01 00:00:41;;;;;;;47.23;40.80;;;;;;;14.53;95.95;100343.50;687199;28;1231;-66
2023/01/01 00:01:13;;;;;;;47.33;40.72;;;;;;;14.51;95.83;100339.16;686677;28;4349;-66
2023/01/01 00:01:39;;;;;;;45.28;40.38;;;;;;;14.46;97.99;100340.16;687564;28;1017;-65
2023/01/01 00:01:59;;;;;;;48.92;41.78;;;;;;;14.33;98.39;100336.13;684973;28;1414;-65
2023/01/01 00:02:19;;;;;;;46.67;39.80;;;;;;;14.33;96.88;100340.50;686103;28;1469;-66
2023/01/01 00:02:40;;;;;;;45.67;37.30;;;;;;;14.43;95.01;100339.38;685824;28;1515;-66
2023/01/01 00:03:00;;;;;;;45.60;37.72;;;;;;;14.51;95.24;100339.16;684012;28;1148;-66
2023/01/01 00:03:21;;;;;;;44.20;38.40;;;;;;;14.51;96.66;100344.44;684099;28;1211;-65
2023/01/01 00:03:41;;;;;;;43.08;38.45;;;;;;;14.45;98.16;100342.84;683353;28;1332;-66
2023/01/01 00:04:02;;;;;;;42.73;37.27;;;;;;;14.42;97.61;100346.41;683096;28;4499;-65
2023/01/01 00:04:22;;;;;;;45.20;38.67;;;;;;;14.43;96.59;100337.63;685726;28;1183;-66
2023/01/01 00:04:43;;;;;;;43.67;37.90;;;;;;;14.47;94.41;100341.03;684362;28;1480;-65
2023/01/01 00:05:04;;;;;;;43.17;36.47;;;;;;;14.59;94.25;100343.34;680675;28;2279;-66
2023/01/01 00:05:25;;;;;;;44.15;36.55;;;;;;;14.60;95.21;100350.31;683903;28;1332;-65
2023/01/01 00:05:45;;;;;;;39.27;35.00;;;;;;;14.64;93.91;100352.00;685991;28;5306;-67
2023/01/01 00:06:12;;;;;;;42.37;34.87;;;;;;;14.51;98.62;100345.31;685293;28;1249;-64
2023/01/01 00:06:32;;;;;;;40.88;34.65;;;;;;;14.54;95.15;100349.59;685309;28;1362;-65
2023/01/01 00:06:53;;;;;;;39.13;33.92;;;;;;;14.55;95.27;100351.34;687355;28;1294;-65
2023/01/01 00:07:14;;;;;;;39.90;34.20;;;;;;;14.57;94.18;100353.03;689335;28;4383;-65
2023/01/01 00:07:34;;;;;;;42.03;34.87;;;;;;;14.57;96.06;100360.06;685175;28;1403;-67
2023/01/01 00:07:54;;;;;;;39.57;35.10;;;;;;;14.56;95.08;100353.94;682252;28;1500;-66
2023/01/01 00:08:15;;;;;;;39.40;34.33;;;;;;;14.65;94.41;100352.88;682336;28;1484;-65
2023/01/01 00:08:36;;;;;;;38.60;32.83;;;;;;;14.69;93.46;100351.88;681168;29;1582;-66
2023/01/01 00:10:27;;;;;;;37.97;31.27;;;;;;;14.78;92.92;100359.50;686103;28;4334;-65
2023/01/01 00:10:47;;;;;;;38.20;32.38;;;;;;;14.69;95.11;100353.63;689263;28;1075;-67
2023/01/01 00:11:08;;;;;;;36.60;30.53;;;;;;;14.65;95.49;100358.13;687948;28;1297;-63
2023/01/01 00:11:32;;;;;;;34.65;30.00;;;;;;;14.60;93.97;100360.84;686924;28;1277;-66
2023/01/01 00:11:53;;;;;;;35.08;29.85;;;;;;;14.67;93.17;100356.31;687568;28;1329;-65
2023/01/01 00:12:13;;;;;;;37.65;30.38;;;;;;;14.66;93.39;100365.09;687057;28;1475;-65
2023/01/01 00:12:33;;;;;;;38.13;30.67;;;;;;;14.58;95.93;100351.25;686761;28;1694;-65
2023/01/01 00:12:55;;;;;;;39.67;31.20;;;;;;;14.52;95.89;100356.69;688132;28;1230;-65
2023/01/01 00:13:16;;;;;;;39.78;30.15;;;;;;;14.52;94.80;100354.91;684909;28;4557;-66
2023/01/01 00:13:39;;;;;;;36.17;30.00;;;;;;;14.57;93.82;100358.28;684734;28;1135;-66
2023/01/01 00:13:59;;;;;;;34.28;29.25;;;;;;;14.56;96.73;100358.34;681212;28;1352;-66
2023/01/01 00:14:19;;;;;;;36.07;30.50;;;;;;;14.43;97.15;100358.66;683076;28;1311;-65
2023/01/01 00:14:43;;;;;;;36.38;30.15;;;;;;;14.47;95.20;100360.31;681721;29;1139;-65
2023/01/01 00:15:03;;;;;;;35.65;28.45;;;;;;;14.53;94.38;100354.00;682154;28;1354;-65
2023/01/01 00:15:26;;;;;;;35.20;28.13;;;;;;;14.54;95.64;100355.75;683832;28;1495;-66
2023/01/01 00:15:46;;;;;;;34.72;28.25;;;;;;;14.51;96.76;100349.69;683481;28;1411;-66
2023/01/01 00:16:10;;;;;;;32.78;28.17;;;;;;;14.55;95.89;100352.22;687716;28;4423;-65
2023/01/01 00:16:30;;;;;;;34.17;28.60;;;;;;;14.47;96.36;100359.44;688281;28;1941;-65
2023/01/01 00:16:54;;;;;;;34.70;29.37;;;;;;;14.39;97.55;100361.41;687629;28;1262;-65
2023/01/01 00:17:14;;;;;;;32.10;28.10;;;;;;;14.37;96.31;100358.81;683908;28;1175;-64
2023/01/01 00:17:34;;;;;;;34.37;27.83;;;;;;;14.44;95.14;100356.88;685311;28;1489;-66
2023/01/01 00:17:56;;;;;;;34.50;27.90;;;;;;;14.49;94.98;100360.25;685605;28;1445;-65
2023/01/01 00:18:16;;;;;;;33.25;27.17;;;;;;;14.43;96.93;100356.03;683996;28;1456;-65
2023/01/01 00:18:38;;;;;;;33.13;27.77;;;;;;;14.38;97.16;100357.03;685967;28;1262;-67
2023/01/01 00:18:59;;;;;;;34.90;27.38;;;;;;;14.38;96.56;100357.03;685426;28;2058;-68
2023/01/01 00:19:19;;;;;;;36.22;26.90;;;;;;;14.47;94.97;100364.72;687620;28;4742;-65
2023/01/01 00:19:39;;;;;;;33.43;26.43;;;;;;;14.51;94.12;100354.94;685218;28;1619;-66
2023/01/01 00:20:00;;;;;;;33.23;26.00;;;;;;;14.59;94.17;100347.72;685071;28;1104;-65
2023/01/01 00:20:21;;;;;;;33.00;26.67;;;;;;;14.56;94.80;100347.81;685020;28;1226;-65
2023/01/01 00:20:41;;;;;;;32.03;26.80;;;;;;;14.52;95.38;100352.28;685029;28;1457;-66
2023/01/01 00:21:06;;;;;;;34.17;27.03;;;;;;;14.48;95.40;100353.25;685836;28;1295;-65
2023/01/01 00:21:27;;;;;;;29.73;26.08;;;;;;;14.51;95.42;100353.22;686244;28;1448;-66
2023/01/01 00:21:47;;;;;;;31.67;26.47;;;;;;;14.52;94.71;100357.53;688053;28;1213;-67
2023/01/01 00:22:08;;;;;;;34.13;27.33;;;;;;;14.53;93.90;100356.66;686518;28;4437;-65
2023/01/01 00:22:28;;;;;;;33.03;26.37;;;;;;;14.53;95.26;100363.69;688810;28;1451;-65
2023/01/01 00:22:48;;;;;;;31.27;26.47;;;;;;;14.58;94.39;100362.66;688050;28;1227;-65
2023/01/01 00:23:09;;;;;;;30.92;26.60;;;;;;;14.55;93.93;100354.84;685069;28;1579;-66
2023/01/01 00:23:29;;;;;;;32.23;26.87;;;;;;;14.57;94.31;100357.44;681874;29;1632;-65
2023/01/01 00:23:50;;;;;;;31.17;26.83;;;;;;;14.61;94.02;100361.72;681772;29;1255;-65
2023/01/01 00:24:10;;;;;;;31.13;26.10;;;;;;;14.64;93.30;100361.66;681226;29;1502;-65
2023/01/01 00:24:31;;;;;;;31.60;25.38;;;;;;;14.66;93.39;100359.00;682052;28;1662;-65
2023/01/01 00:24:51;;;;;;;32.08;25.20;;;;;;;14.66;93.36;100359.84;684385;28;1248;-65
2023/01/01 00:25:13;;;;;;;30.30;24.87;;;;;;;14.70;93.08;100358.84;683563;28;4832;-65
2023/01/01 00:25:33;;;;;;;31.52;25.65;;;;;;;14.67;94.15;100350.19;687870;28;886;-65
2023/01/01 00:25:53;;;;;;;31.57;26.00;;;;;;;14.67;92.97;100353.69;688888;28;1667;-64
2023/01/01 00:26:17;;;;;;;30.70;24.90;;;;;;;14.68;93.21;100355.41;686730;28;1060;-64
2023/01/01 00:26:37;;;;;;;30.85;25.02;;;;;;;14.58;97.17;100351.25;686164;28;1527;-65
2023/01/01 00:26:57;;;;;;;28.00;24.53;;;;;;;14.50;97.62;100359.38;687063;28;1110;-65
2023/01/01 00:27:18;;;;;;;29.33;24.97;;;;;;;14.46;94.99;100358.56;687166;28;1516;-64
2023/01/01 00:27:39;;;;;;;27.25;23.60;;;;;;;14.54;94.23;100366.28;688082;28;1229;-65
2023/01/01 00:28:00;;;;;;;28.77;24.83;;;;;;;14.49;95.11;100360.25;687183;28;1323;-68
2023/01/01 00:28:20;;;;;;;31.88;24.73;;;;;;;14.48;95.07;100354.16;686435;28;4420;-65
2023/01/01 00:28:41;;;;;;;29.27;24.77;;;;;;;14.53;94.00;100359.28;688017;28;1557;-66
2023/01/01 00:29:03;;;;;;;28.52;24.85;;;;;;;14.52;95.51;100356.69;687638;28;1252;-65
2023/01/01 00:29:23;;;;;;;28.33;24.98;;;;;;;14.41;97.90;100362.22;688130;28;1510;-66
2023/01/01 00:29:44;;;;;;;27.73;24.17;;;;;;;14.35;98.03;100359.75;687769;28;1189;-66
2023/01/01 00:30:04;;;;;;;28.40;23.30;;;;;;;14.40;95.20;100358.75;687274;28;1158;-65
2023/01/01 00:30:25;;;;;;;29.58;23.63;;;;;;;14.41;94.61;100357.84;687652;28;1355;-66
2023/01/01 00:30:45;;;;;;;31.83;24.63;;;;;;;14.51;93.92;100361.09;688162;28;1325;-65
2023/01/01 00:31:07;;;;;;;30.15;24.90;;;;;;;14.49;94.54;100365.53;686941;28;4429;-65
2023/01/01 00:31:28;;;;;;;30.50;24.95;;;;;;;14.51;93.79;100363.72;687560;28;1371;-65
2023/01/01 00:31:49;;;;;;;31.50;25.25;;;;;;;14.51;96.10;100360.22;686122;28;1147;-65
2023/01/01 00:32:11;;;;;;;32.60;26.10;;;;;;;14.39;97.99;100364.03;685947;28;1324;-67
2023/01/01 00:32:31;;;;;;;28.33;25.15;;;;;;;14.41;94.92;100357.84;684621;28;1346;-66
2023/01/01 00:32:51;;;;;;;29.98;23.48;;;;;;;14.50;94.39;100359.38;685747;28;1274;-66
2023/01/01 00:33:12;;;;;;;28.40;22.50;;;;;;;14.53;94.00;100368.94;683165;28;1313;-64
2023/01/01 00:33:32;;;;;;;31.15;23.10;;;;;;;14.53;94.60;100367.16;680385;28;1251;-63
2023/01/01 00:33:54;;;;;;;26.47;22.70;;;;;;;14.52;93.56;100370.69;679321;29;1457;-65
2023/01/01 00:34:15;;;;;;;25.70;22.55;;;;;;;14.55;93.19;100361.88;680402;28;4557;-66
2023/01/01 00:34:35;;;;;;;28.83;22.70;;;;;;;14.49;93.74;100357.63;682008;28;1271;-65
2023/01/01 00:34:55;;;;;;;29.23;23.60;;;;;;;14.46;94.50;100368.22;682393;28;1317;-65
2023/01/01 00:35:17;;;;;;;28.67;22.47;;;;;;;14.51;93.92;100363.72;685043;28;1725;-65
2023/01/01 00:35:37;;;;;;;28.75;21.40;;;;;;;14.57;92.78;100363.56;686174;28;1068;-65
2023/01/01 00:36:07;;;;;;;29.67;21.67;;;;;;;14.51;96.37;100366.34;687951;28;1082;-65
2023/01/01 00:36:28;;;;;;;25.85;22.17;;;;;;;14.43;95.92;100369.16;688271;28;1996;-66
2023/01/01 00:36:49;;;;;;;23.95;21.20;;;;;;;14.47;94.32;100365.56;687791;28;1551;-65
2023/01/01 00:37:10;;;;;;;25.50;21.27;;;;;;;14.40;96.37;100377.16;684120;28;4345;-64
2023/01/01 00:37:30;;;;;;;26.52;21.85;;;;;;;14.33;97.50;100362.44;683839;28;1485;-64
2023/01/01 00:37:51;;;;;;;26.10;21.48;;;;;;;14.36;94.93;100367.59;682146;28;1243;-65
2023/01/01 00:38:12;;;;;;;26.10;21.42;;;;;;;14.46;94.05;100358.56;683043;28;1077;-65
2023/01/01 00:38:32;;;;;;;25.17;20.97;;;;;;;14.50;93.31;100359.38;680986;28;1291;-66
2023/01/01 00:38:53;;;;;;;23.63;20.30;;;;;;;14.53;93.65;100363.69;682474;28;1391;-66
2023/01/01 00:39:13;;;;;;;23.92;20.15;;;;;;;14.55;92.81;100357.47;688410;28;1488;-65
2023/01/01 00:39:34;;;;;;;25.23;18.67;;;;;;;14.49;93.09;100362.88;689740;28;1530;-65
2023/01/01 00:39:54;;;;;;;25.70;19.00;;;;;;;14.49;93.51;100368.16;685603;28;1572;-64
2023/01/01 00:40:15;;;;;;;24.20;19.73;;;;;;;14.49;93.66;100370.78;686590;28;4299;-66
2023/01/01 00:40:35;;;;;;;25.30;19.53;;;;;;;14.50;93.08;100367.25;687255;28;1041;-64
2023/01/01 00:40:56;;;;;;;25.10;19.48;;;;;;;14.46;93.30;100360.34;684520;28;1703;-65
2023/01/01 00:41:17;;;;;;;23.13;19.37;;;;;;;14.45;95.74;100367.38;684922;28;1447;-65
2023/01/01 00:41:37;;;;;;;25.23;19.80;;;;;;;14.40;94.97;100365.75;686151;28;1609;-65
2023/01/01 00:41:58;;;;;;;26.53;19.43;;;;;;;14.41;94.23;100363.09;686946;28;1203;-63
2023/01/01 00:42:18;;;;;;;23.80;18.13;;;;;;;14.43;93.06;100365.69;688724;28;1536;-65
2023/01/01 00:42:40;;;;;;;22.23;17.27;;;;;;;14.47;92.92;100362.94;687740;28;1426;-65
2023/01/01 00:43:00;;;;;;;25.90;17.35;;;;;;;14.48;92.59;100369.03;687135;28;1452;-64
2023/01/01 00:43:21;;;;;;;26.03;17.77;;;;;;;14.53;92.27;100367.16;686719;28;4319;-65
2023/01/01 00:43:41;;;;;;;20.20;16.88;;;;;;;14.47;95.01;100362.94;687766;28;1294;-65
2023/01/01 00:44:02;;;;;;;22.05;17.80;;;;;;;14.36;94.45;100357.09;687963;28;1250;-64
2023/01/01 00:44:22;;;;;;;21.30;16.70;;;;;;;14.37;93.71;100365.81;687711;28;1254;-64
2023/01/01 00:44:43;;;;;;;20.17;16.23;;;;;;;14.35;93.72;100362.38;688894;28;1428;-64
2023/01/01 00:45:03;;;;;;;23.30;16.77;;;;;;;14.39;93.24;100366.66;686652;28;1463;-65
2023/01/01 00:45:24;;;;;;;23.35;17.23;;;;;;;14.41;92.81;100363.09;687626;28;1267;-65
2023/01/01 00:45:46;;;;;;;20.70;16.90;;;;;;;14.44;93.04;100364.75;688089;28;1474;-64
2023/01/01 00:46:07;;;;;;;21.02;16.38;;;;;;;14.43;93.97;100365.69;684949;28;4336;-64
2023/01/01 00:46:28;;;;;;;20.42;16.40;;;;;;;14.26;96.60;100374.84;684887;28;1508;-65
2023/01/01 00:46:48;;;;;;;20.77;16.90;;;;;;;14.25;95.52;100375.75;684236;28;1219;-64
2023/01/01 00:47:11;;;;;;;20.57;17.43;;;;;;;14.21;96.82;100374.09;684723;28;1293;-64
2023/01/01 00:47:31;;;;;;;20.73;17.13;;;;;;;14.17;96.13;100368.97;686275;28;1263;-64
2023/01/01 00:47:53;;;;;;;22.43;16.30;;;;;;;14.22;94.70;100370.56;687052;28;1335;-64
2023/01/01 00:48:13;;;;;;;23.15;16.55;;;;;;;14.20;95.27;100372.38;687294;28;1200;-64
2023/01/01 00:48:34;;;;;;;22.88;16.02;;;;;;;14.22;94.13;100374.94;688381;28;1139;-64
2023/01/01 00:48:55;;;;;;;22.85;16.45;;;;;;;14.24;93.71;100368.75;687183;28;1437;-66
2023/01/01 00:49:15;;;;;;;21.57;16.40;;;;;;;14.27;94.66;100367.81;686192;28;4617;-65
2023/01/01 00:49:35;;;;;;;19.83;15.70;;;;;;;14.26;94.50;100372.22;686239;28;1445;-65
2023/01/01 00:49:56;;;;;;;21.40;15.53;;;;;;;14.24;93.62;100368.75;685396;28;1727;-64
2023/01/01 00:50:16;;;;;;;22.85;15.68;;;;;;;14.22;94.75;100373.22;684944;28;1244;-66
2023/01/01 00:50:37;;;;;;;22.38;16.10;;;;;;;14.16;95.31;100375.13;684600;28;3562;-64
2023/01/01 00:50:57;;;;;;;19.63;15.60;;;;;;;14.13;95.78;100376.91;686995;28;1222;-64
2023/01/01 00:51:18;;;;;;;19.23;15.17;;;;;;;14.11;96.32;100378.72;686346;28;1478;-64
2023/01/01 00:51:38;;;;;;;19.25;15.27;;;;;;;14.03;97.57;100379.81;687565;28;1009;-65
2023/01/01 00:51:59;;;;;;;18.00;15.07;;;;;;;14.04;96.12;100385.03;686540;28;1028;-63
2023/01/01 00:52:19;;;;;;;17.90;14.75;;;;;;;13.98;98.50;100374.66;684415;28;4409;-64
2023/01/01 00:52:39;;;;;;;19.43;13.80;;;;;;;13.95;99.17;100378.19;685258;28;1309;-64
2023/01/01 00:53:00;;;;;;;20.83;14.23;;;;;;;13.94;99.25;100375.63;685144;28;1164;-64
2023/01/01 00:53:21;;;;;;;19.70;14.13;;;;;;;13.99;98.28;100383.41;684020;28;1272;-64
2023/01/01 00:53:41;;;;;;;18.98;13.23;;;;;;;14.01;95.39;100381.59;682695;28;1677;-64
2023/01/01 00:54:01;;;;;;;18.37;13.73;;;;;;;14.02;96.94;100383.34;681661;28;1411;-65
2023/01/01 00:54:22;;;;;;;19.00;13.98;;;;;;;13.94;97.82;100380.88;685442;28;1207;-64
2023/01/01 00:54:42;;;;;;;18.35;13.45;;;;;;;14.06;94.78;100377.09;682195;28;1518;-65
2023/01/01 00:55:03;;;;;;;17.80;12.90;;;;;;;14.04;94.62;100378.88;681556;28;4361;-64
2023/01/01 00:55:23;;;;;;;17.40;12.40;;;;;;;14.14;93.11;100377.78;682035;28;1298;-64
2023/01/01 00:55:44;;;;;;;17.50;12.30;;;;;;;14.07;96.93;100374.44;683241;28;1298;-64
2023/01/01 00:56:04;;;;;;;16.67;12.48;;;;;;;14.02;96.79;100380.72;682383;28;1055;-65
2023/01/01 00:56:25;;;;;;;15.50;11.90;;;;;;;14.08;94.37;100380.53;682623;28;962;-65
2023/01/01 00:56:45;;;;;;;15.95;12.00;;;;;;;14.07;94.62;100381.47;683002;28;1992;-64
2023/01/01 00:57:06;;;;;;;16.67;12.43;;;;;;;14.05;97.00;100384.13;682435;28;1552;-64
2023/01/01 00:57:26;;;;;;;15.10;11.93;;;;;;;14.12;93.23;100380.47;681215;28;1078;-65
2023/01/01 00:57:47;;;;;;;16.73;11.10;;;;;;;14.16;93.25;100370.72;679581;29;1404;-64
2023/01/01 00:58:07;;;;;;;15.23;10.77;;;;;;;14.22;91.75;100377.59;679051;29;4534;-64
2023/01/01 00:58:28;;;;;;;15.68;10.93;;;;;;;14.19;94.10;100372.41;678429;29;1213;-64
2023/01/01 00:58:48;;;;;;;16.33;11.93;;;;;;;14.13;93.79;100378.69;677955;29;1202;-64
2023/01/01 00:59:09;;;;;;;14.18;11.07;;;;;;;14.14;92.22;100372.53;680221;28;1516;-64
2023/01/01 00:59:29;;;;;;;13.57;10.83;;;;;;;14.14;95.16;100375.16;680398;28;1299;-64
2023/01/01 00:59:50;;;;;;;16.77;11.07;;;;;;;14.15;92.45;100374.25;686456;28;1576;-66
2023/01/01 01:00:11;;;;;;;16.93;10.50;;;;;;;14.19;91.96;100375.03;685171;28;1201;-65
2023/01/01 01:00:31;;;;;;;15.98;10.73;;;;;;;14.20;91.89;100385.50;685688;28;1216;-64
2023/01/01 01:00:53;;;;;;;16.77;11.02;;;;;;;14.23;91.72;100382.84;685366;28;1567;-65
2023/01/01 01:01:13;;;;;;;17.50;11.00;;;;;;;14.23;91.89;100372.31;683785;28;4302;-65
2023/01/01 01:01:34;;;;;;;16.77;10.63;;;;;;;14.25;91.70;100373.13;686405;28;1343;-65
2023/01/01 01:01:54;;;;;;;15.87;10.10;;;;;;;14.26;91.81;100376.59;684526;28;1141;-64
2023/01/01 01:02:15;;;;;;;16.90;9.93;;;;;;;14.27;91.11;100380.97;684215;28;1270;-64
2023/01/01 01:02:35;;;;;;;14.33;9.83;;;;;;;14.29;91.61;100377.41;684267;28;1294;-64
2023/01/01 01:02:55;;;;;;;14.25;10.05;;;;;;;14.24;92.06;100374.03;682755;28;1727;-64
2023/01/01 01:03:29;;;;;;;14.57;9.97;;;;;;;14.33;90.67;100382.59;684619;28;1552;-65
2023/01/01 01:03:49;;;;;;;13.85;9.23;;;;;;;14.27;90.55;100379.22;680134;29;1249;-66
2023/01/01 01:04:09;;;;;;;14.73;8.83;;;;;;;14.30;91.07;100384.41;680608;28;5451;-65
2023/01/01 01:04:30;;;;;;;13.33;9.00;;;;;;;14.25;92.06;100380.16;679524;29;1425;-66
2023/01/01 01:04:50;;;;;;;13.30;8.25;;;;;;;14.33;89.70;100388.72;677409;29;1400;-67
2023/01/01 01:05:11;;;;;;;12.63;7.73;;;;;;;14.35;89.38;100384.28;677833;29;1006;-65
2023/01/01 01:05:32;;;;;;;12.48;8.13;;;;;;;14.29;92.39;100384.44;680734;28;4932;-64
2023/01/01 01:05:57;;;;;;;11.48;8.20;;;;;;;14.31;91.89;100386.09;683758;28;1263;-65
2023/01/01 01:06:18;;;;;;;12.63;7.93;;;;;;;14.22;94.01;100388.97;683735;28;1290;-64
2023/01/01 01:06:38;;;;;;;12.20;8.20;;;;;;;14.13;95.17;100397.06;686816;28;1713;-65
2023/01/01 01:06:59;;;;;;;14.10;8.17;;;;;;;14.14;93.01;100390.94;687161;28;1223;-65
2023/01/01 01:07:19;;;;;;;12.57;7.85;;;;;;;14.19;90.79;100381.19;685483;28;4308;-64
2023/01/01 01:07:40;;;;;;;13.27;7.97;;;;;;;14.16;94.25;100383.00;686634;28;1472;-65
2023/01/01 01:08:00;;;;;;;12.82;7.95;;;;;;;14.16;91.83;100373.34;687278;28;1513;-66
2023/01/01 01:08:20;;;;;;;11.30;7.60;;;;;;;14.18;90.81;100382.06;687426;28;1327;-65
2023/01/01 01:08:44;;;;;;;10.63;7.07;;;;;;;14.25;90.07;100383.63;687107;28;1267;-64
2023/01/01 01:09:06;;;;;;;12.02;7.07;;;;;;;14.24;90.92;100379.28;686617;28;1073;-64
2023/01/01 01:09:26;;;;;;;11.48;7.20;;;;;;;14.18;92.96;100381.19;687459;28;1688;-65
2023/01/01 01:09:47;;;;;;;10.52;7.20;;;;;;;14.23;90.49;100385.47;688238;28;1480;-65
2023/01/01 01:10:08;;;;;;;11.03;6.80;;;;;;;14.23;92.13;100390.72;686984;28;4738;-65
2023/01/01 01:10:28;;;;;;;10.90;6.63;;;;;;;14.14;91.57;100394.41;688501;28;1314;-66
2023/01/01 01:10:49;;;;;;;10.30;7.00;;;;;;;14.14;92.51;100383.03;687103;28;1068;-65
2023/01/01 01:11:18;;;;;;;10.63;6.63;;;;;;;14.14;91.35;100372.53;686846;28;1566;-65
2023/01/01 01:11:39;;;;;;;9.95;6.95;;;;;;;14.14;91.21;100377.78;685410;28;1435;-66
2023/01/01 01:11:59;;;;;;;9.63;6.47;;;;;;;14.14;90.71;100386.53;687716;28;1156;-64
2023/01/01 01:12:20;;;;;;;9.37;6.40;;;;;;;14.13;91.39;100391.81;685029;28;1263;-65
2023/01/01 01:12:40;;;;;;;9.68;6.35;;;;;;;14.11;91.54;100393.63;683373;28;1157;-65
2023/01/01 01:13:00;;;;;;;11.50;6.30;;;;;;;14.20;89.68;100392.53;686519;28;1499;-65
2023/01/01 01:13:21;;;;;;;9.35;6.15;;;;;;;14.15;91.63;100392.66;687333;28;4269;-65
2023/01/01 01:13:44;;;;;;;10.57;6.10;;;;;;;14.09;90.96;100384.91;687651;28;1773;-66
2023/01/01 01:14:04;;;;;;;9.88;5.85;;;;;;;14.15;91.30;100384.78;682738;28;1066;-65
2023/01/01 01:14:24;;;;;;;9.60;5.60;;;;;;;14.12;91.49;100383.09;683985;28;1294;-65
2023/01/01 01:14:45;;;;;;;10.05;5.97;;;;;;;14.08;94.04;100393.69;684421;28;1619;-65
2023/01/01 01:15:07;;;;;;;10.20;5.43;;;;;;;14.09;92.58;100375.25;681133;29;1872;-66
2023/01/01 01:15:28;;;;;;;9.38;5.30;;;;;;;14.08;90.81;100376.16;681852;28;1838;-65
2023/01/01 01:15:48;;;;;;;9.57;5.07;;;;;;;14.18;89.63;100379.44;681528;28;1728;-64
2023/01/01 01:16:14;;;;;;;9.13;4.80;;;;;;;14.14;91.29;100377.78;682885;28;4432;-65
2023/01/01 01:16:34;;;;;;;7.68;5.25;;;;;;;14.06;94.45;100385.84;684198;28;1970;-64
2023/01/01 01:16:55;;;;;;;9.18;5.10;;;;;;;14.10;91.25;100384.88;685762;28;1470;-64
2023/01/01 01:17:15;;;;;;;9.20;5.20;;;;;;;14.14;90.09;100383.91;684169;28;1374;-64
2023/01/01 01:17:36;;;;;;;8.73;5.20;;;;;;;14.22;89.23;100385.47;681950;28;1538;-65
2023/01/01 01:17:56;;;;;;;9.67;5.37;;;;;;;14.21;90.24;100389.03;682536;28;1311;-66
2023/01/01 01:18:16;;;;;;;8.45;5.15;;;;;;;14.13;92.34;100381.31;682003;28;1291;-66
2023/01/01 01:18:37;;;;;;;8.80;5.03;;;;;;;14.14;89.59;100383.03;681264;28;1459;-64
2023/01/01 01:19:00;;;;;;;8.60;4.65;;;;;;;14.09;91.05;100391.03;681771;28;1233;-65
2023/01/01 01:19:22;;;;;;;8.57;4.32;;;;;;;14.18;88.63;100384.69;684279;28;4340;-66
2023/01/01 01:19:43;;;;;;;8.77;4.70;;;;;;;14.13;92.58;100381.31;683044;28;1566;-65
2023/01/01 01:20:04;;;;;;;9.13;4.75;;;;;;;14.14;89.83;100396.19;683468;28;1621;-65
2023/01/01 01:20:24;;;;;;;8.70;4.60;;;;;;;14.06;93.67;100385.00;684123;28;1860;-64
2023/01/01 01:20:51;;;;;;;8.67;4.70;;;;;;;14.07;93.11;100386.72;684125;28;1510;-64
2023/01/01 01:21:16;;;;;;;8.27;4.60;;;;;;;14.06;92.61;100395.50;684379;28;1541;-65
2023/01/01 01:21:37;;;;;;;7.78;4.88;;;;;;;14.08;90.60;100383.16;682641;28;2259;-65
2023/01/01 01:21:57;;;;;;;8.03;4.27;;;;;;;14.13;88.67;100383.94;683942;28;1362;-65
2023/01/01 01:22:17;;;;;;;6.80;4.23;;;;;;;14.12;89.02;100395.34;688489;28;4413;-65
2023/01/01 01:22:38;;;;;;;8.35;4.25;;;;;;;14.18;87.90;100376.81;687305;28;1422;-65
2023/01/01 01:22:58;;;;;;;9.60;4.25;;;;;;;14.22;88.78;100383.72;686768;28;1562;-65
2023/01/01 01:23:20;;;;;;;7.68;3.90;;;;;;;14.13;92.10;100379.53;687560;28;1691;-65
2023/01/01 01:23:40;;;;;;;7.47;4.00;;;;;;;14.11;93.39;100380.50;686992;28;1398;-63
2023/01/01 01:24:02;;;;;;;8.63;4.10;;;;;;;14.13;90.07;100376.06;685904;28;1454;-66
2023/01/01 01:24:23;;;;;;;7.38;3.70;;;;;;;14.13;92.51;100381.31;687317;28;1260;-63
2023/01/01 01:24:43;;;;;;;7.70;4.07;;;;;;;14.13;91.58;100383.94;683516;28;1334;-65
2023/01/01 01:25:05;;;;;;;7.18;3.67;;;;;;;14.12;91.10;100379.56;682828;28;4808;-65
2023/01/01 01:25:25;;;;;;;6.88;3.78;;;;;;;14.03;93.11;100369.31;682014;28;1189;-65
2023/01/01 01:25:46;;;;;;;7.25;3.60;;;;;;;13.98;93.95;100387.78;682839;28;1498;-65
2023/01/01 01:26:12;;;;;;;7.25;3.60;;;;;;;13.94;93.85;100388.75;682386;28;1426;-65
2023/01/01 01:26:34;;;;;;;7.43;3.97;;;;;;;14.02;89.29;100383.34;685043;28;2006;-66
2023/01/01 01:26:54;;;;;;;8.48;3.92;;;;;;;14.11;89.11;100383.97;685642;28;1157;-65
2023/01/01 01:27:15;;;;;;;8.37;3.83;;;;;;;14.14;90.77;100377.78;684555;28;1376;-65
2023/01/01 01:27:35;;;;;;;6.63;3.67;;;;;;;14.12;89.91;100374.31;683517;28;1358;-65
2023/01/01 01:27:55;;;;;;;7.57;3.80;;;;;;;14.21;88.08;100378.50;682270;28;1461;-67
2023/01/01 01:28:16;;;;;;;6.60;3.50;;;;;;;14.21;90.32;100384.63;682133;28;4411;-65
2023/01/01 01:28:37;;;;;;;6.97;3.70;;;;;;;14.19;88.44;100381.19;683760;28;1563;-65
2023/01/01 01:28:57;;;;;;;7.47;3.58;;;;;;;14.19;88.71;100389.06;685842;28;1065;-64
2023/01/01 01:29:18;;;;;;;8.35;3.85;;;;;;;14.16;91.20;100381.22;687425;28;980;-65
2023/01/01 01:29:39;;;;;;;8.20;3.80;;;;;;;14.06;91.08;100391.09;687246;28;1686;-67
2023/01/01 01:29:59;;;;;;;6.57;3.60;;;;;;;14.15;87.80;100384.78;685276;28;1661;-65
2023/01/01 01:30:19;;;;;;;6.73;3.40;;;;;;;14.22;87.24;100385.47;687384;28;1103;-65
2023/01/01 01:30:41;;;;;;;6.30;3.40;;;;;;;14.30;86.52;100384.41;687444;28;1209;-69
2023/01/01 01:31:01;;;;;;;7.28;3.70;;;;;;;14.35;86.17;100380.78;682672;28;4347;-67
2023/01/01 01:31:23;;;;;;;6.93;3.70;;;;;;;14.26;89.22;100382.75;682523;28;1328;-66
2023/01/01 01:31:43;;;;;;;7.55;3.40;;;;;;;14.24;89.89;100381.06;683012;28;1250;-65
2023/01/01 01:32:04;;;;;;;7.23;3.50;;;;;;;14.31;86.30;100380.84;683117;28;882;-67
2023/01/01 01:32:25;;;;;;;6.65;3.40;;;;;;;14.28;89.25;100380.06;682517;28;1314;-65
2023/01/01 01:32:45;;;;;;;6.57;3.57;;;;;;;14.29;86.67;100387.94;683417;28;1057;-64
2023/01/01 01:33:05;;;;;;;7.10;3.40;;;;;;;14.36;86.32;100390.38;682861;28;1096;-65
2023/01/01 01:33:26;;;;;;;7.03;3.00;;;;;;;14.40;84.84;100394.66;680754;29;1125;-65
2023/01/01 01:33:47;;;;;;;5.32;2.70;;;;;;;14.41;86.66;100391.16;681082;29;1031;-65
2023/01/01 01:34:08;;;;;;;6.40;3.10;;;;;;;14.26;89.92;100392.38;680747;29;4313;-62
2023/01/01 01:34:28;;;;;;;6.25;3.40;;;;;;;14.22;89.74;100399.50;683610;28;986;-65
2023/01/01 01:34:49;;;;;;;6.70;3.60;;;;;;;14.27;86.94;100392.38;682278;28;1077;-66
2023/01/01 01:35:09;;;;;;;10.27;3.63;;;;;;;14.29;86.52;100390.56;680302;28;1058;-66
2023/01/01 01:35:29;;;;;;;6.17;3.20;;;;;;;14.24;86.92;100392.41;682697;28;1433;-65
2023/01/01 01:35:53;;;;;;;6.80;3.17;;;;;;;14.22;87.59;100390.72;684481;28;1371;-65
2023/01/01 01:36:14;;;;;;;8.63;3.70;;;;;;;14.10;91.96;100389.28;685030;28;1288;-64
2023/01/01 01:36:35;;;;;;;7.47;3.72;;;;;;;14.16;87.36;100389.13;684918;28;1906;-66
2023/01/01 01:36:55;;;;;;;5.40;3.08;;;;;;;14.26;86.57;100387.13;685942;28;1402;-66
2023/01/01 01:37:16;;;;;;;6.50;2.97;;;;;;;14.27;87.00;100389.75;684739;28;4411;-66
2023/01/01 01:37:36;;;;;;;7.67;3.33;;;;;;;14.29;86.35;100389.69;681968;28;1446;-66
2023/01/01 01:37:57;;;;;;;7.57;3.08;;;;;;;14.24;86.86;100392.41;680440;29;1186;-65
2023/01/01 01:38:17;;;;;;;6.33;2.90;;;;;;;14.20;89.82;100398.66;679462;29;1121;-65
2023/01/01 01:38:38;;;;;;;6.80;3.00;;;;;;;14.14;91.04;100398.81;681173;29;1489;-64
2023/01/01 01:38:58;;;;;;;5.30;3.00;;;;;;;14.12;92.02;100398.84;678245;29;1254;-65
2023/01/01 01:39:19;;;;;;;6.70;3.20;;;;;;;14.02;92.09;100404.34;678293;29;1258;-65
2023/01/01 01:39:39;;;;;;;7.37;3.20;;;;;;;14.10;89.15;100402.41;681236;29;972;-66
2023/01/01 01:39:59;;;;;;;7.55;3.03;;;;;;;14.12;90.16;100395.34;682755;28;1088;-65